createdAt,value
2022-10-05T00:00:01.286Z,0.00
2022-10-05T00:01:01.312Z,0.00
2022-10-05T00:02:01.323Z,0.00
2022-10-05T00:03:01.299Z,0.00
2022-10-05T00:04:01.257Z,0.00
2022-10-05T00:05:01.261Z,0.00
2022-10-05T00:06:01.234Z,0.00
2022-10-05T00:07:01.220Z,0.00
2022-10-05T00:08:01.242Z,0.00
2022-10-05T00:09:01.193Z,0.00
2022-10-05T00:10:01.189Z,0.00
2022-10-05T00:11:01.173Z,0.00
2022-10-05T00:12:01.206Z,0.00
2022-10-05T00:13:01.190Z,0.00
2022-10-05T00:14:01.119Z,0.00
2022-10-05T00:15:01.144Z,0.00
2022-10-05T00:16:01.161Z,0.00
2022-10-05T00:17:01.127Z,0.00
2022-10-05T00:18:01.151Z,0.00
2022-10-05T00:19:01.093Z,0.00
2022-10-05T00:20:01.070Z,0.00
2022-10-05T00:21:01.081Z,0.00
2022-10-05T00:22:01.053Z,0.00
2022-10-05T00:23:01.070Z,0.00
2022-10-05T00:24:01.024Z,0.00
2022-10-05T00:25:01.017Z,0.00
2022-10-05T00:26:01.002Z,0.00
2022-10-05T00:27:01.005Z,0.00
2022-10-05T00:28:01.051Z,0.00
2022-10-05T00:29:00.983Z,0.00
2022-10-05T00:30:01.011Z,0.00
2022-10-05T00:31:00.959Z,0.00
2022-10-05T00:32:01.006Z,0.00
2022-10-05T00:33:00.962Z,0.00
2022-10-05T00:34:00.902Z,0.00
2022-10-05T00:35:00.906Z,0.00
2022-10-05T00:36:00.879Z,0.00
2022-10-05T00:37:00.915Z,0.00
2022-10-05T00:38:00.920Z,0.00
2022-10-05T00:39:00.870Z,0.00
2022-10-05T00:40:00.846Z,0.00
2022-10-05T00:41:00.850Z,0.00
2022-10-05T00:42:00.826Z,0.00
2022-10-05T00:43:00.861Z,0.00
2022-10-05T00:44:00.796Z,0.00
2022-10-05T00:45:00.786Z,0.00
2022-10-05T00:46:00.844Z,0.00
2022-10-05T00:47:00.767Z,0.00
2022-10-05T00:48:00.805Z,0.00
2022-10-05T00:49:00.756Z,0.00
2022-10-05T00:50:00.738Z,0.00
2022-10-05T00:51:00.728Z,0.00
2022-10-05T00:52:00.723Z,0.00
2022-10-05T00:53:00.758Z,0.00
2022-10-05T00:54:00.722Z,0.00
2022-10-05T00:55:00.688Z,0.00
2022-10-05T00:56:00.667Z,0.00
2022-10-05T00:57:00.699Z,0.00
2022-10-05T00:58:00.699Z,0.00
2022-10-05T00:59:00.654Z,0.00
2022-10-05T01:00:00.621Z,0.00
2022-10-05T01:01:00.693Z,0.00
2022-10-05T01:02:00.639Z,0.00
2022-10-05T01:03:00.626Z,0.00
2022-10-05T01:04:00.571Z,0.00
2022-10-05T01:05:00.572Z,0.00
2022-10-05T01:06:00.565Z,0.00
2022-10-05T01:07:00.556Z,0.00
2022-10-05T01:08:00.575Z,0.00
2022-10-05T01:09:00.529Z,0.00
2022-10-05T01:10:00.618Z,0.00
2022-10-05T01:11:00.522Z,0.00
2022-10-05T01:12:00.498Z,0.00
2022-10-05T01:13:00.529Z,0.00
2022-10-05T01:14:00.479Z,0.00
2022-10-05T01:15:00.467Z,0.00
2022-10-05T01:16:00.503Z,0.00
2022-10-05T01:17:00.514Z,0.00
2022-10-05T01:18:00.479Z,0.00
2022-10-05T01:19:00.414Z,0.00
2022-10-05T01:20:00.400Z,0.00
2022-10-05T01:21:00.394Z,0.00
2022-10-05T01:22:00.374Z,0.00
2022-10-05T01:23:00.413Z,0.00
2022-10-05T01:24:00.358Z,0.00
2022-10-05T01:25:00.355Z,0.00
2022-10-05T01:26:00.340Z,0.00
2022-10-05T01:27:00.328Z,0.00
2022-10-05T01:28:00.421Z,0.00
2022-10-05T01:29:00.304Z,0.00
2022-10-05T01:30:00.306Z,0.00
2022-10-05T01:31:00.278Z,0.00
2022-10-05T01:32:00.263Z,0.00
2022-10-05T01:33:00.293Z,0.00
2022-10-05T01:34:00.233Z,0.00
2022-10-05T01:35:00.240Z,0.00
2022-10-05T01:36:00.213Z,0.00
2022-10-05T01:37:00.222Z,0.00
2022-10-05T01:38:00.241Z,0.00
2022-10-05T01:39:00.193Z,0.00
2022-10-05T01:40:00.171Z,0.00
2022-10-05T01:41:00.181Z,0.00
2022-10-05T01:42:00.194Z,0.00
2022-10-05T01:43:00.174Z,0.00
2022-10-05T01:44:00.139Z,0.00
2022-10-05T01:45:00.118Z,0.00
2022-10-05T01:46:00.219Z,0.00
2022-10-05T01:47:00.104Z,0.00
2022-10-05T01:48:00.116Z,0.00
2022-10-05T01:49:00.077Z,0.00
2022-10-05T01:50:00.049Z,0.00
2022-10-05T01:51:00.041Z,0.00
2022-10-05T01:52:00.036Z,0.00
2022-10-05T01:53:00.095Z,0.00
2022-10-05T01:54:00.028Z,0.00
2022-10-05T01:55:00.017Z,0.00
2022-10-05T01:55:59.990Z,0.00
2022-10-05T01:56:59.977Z,0.00
2022-10-05T01:57:59.999Z,0.00
2022-10-05T01:58:59.954Z,0.00
2022-10-05T01:59:59.954Z,0.00
2022-10-05T02:00:59.991Z,0.00
2022-10-05T02:01:59.938Z,0.00
2022-10-05T02:02:59.949Z,0.00
2022-10-05T02:03:59.928Z,0.00
2022-10-05T02:05:02.640Z,0.00
2022-10-05T02:05:59.880Z,0.00
2022-10-05T02:06:59.881Z,0.00
2022-10-05T02:07:59.911Z,0.00
2022-10-05T02:08:59.855Z,0.00
2022-10-05T02:09:59.836Z,0.00
2022-10-05T02:10:59.836Z,0.00
2022-10-05T02:11:59.813Z,0.00
2022-10-05T02:12:59.856Z,0.00
2022-10-05T02:13:59.797Z,0.00
2022-10-05T02:14:59.757Z,0.00
2022-10-05T02:15:59.800Z,0.00
2022-10-05T02:16:59.756Z,0.00
2022-10-05T02:17:59.788Z,0.00
2022-10-05T02:18:59.744Z,0.00
2022-10-05T02:19:59.710Z,0.00
2022-10-05T02:20:59.723Z,0.00
2022-10-05T02:21:59.686Z,0.00
2022-10-05T02:22:59.733Z,0.00
2022-10-05T02:23:59.671Z,0.00
2022-10-05T02:24:59.682Z,0.00
2022-10-05T02:25:59.677Z,0.00
2022-10-05T02:26:59.645Z,0.00
2022-10-05T02:27:59.729Z,0.00
2022-10-05T02:28:59.636Z,0.00
2022-10-05T02:29:59.614Z,0.00
2022-10-05T02:30:59.600Z,0.00
2022-10-05T02:31:59.597Z,0.00
2022-10-05T02:32:59.610Z,0.00
2022-10-05T02:33:59.561Z,0.00
2022-10-05T02:34:59.536Z,0.00
2022-10-05T02:35:59.540Z,0.00
2022-10-05T02:36:59.542Z,0.00
2022-10-05T02:37:59.564Z,0.00
2022-10-05T02:38:59.517Z,0.00
2022-10-05T02:39:59.499Z,0.00
2022-10-05T02:40:59.481Z,0.00
2022-10-05T02:41:59.488Z,0.00
2022-10-05T02:42:59.512Z,0.00
2022-10-05T02:43:59.452Z,0.00
2022-10-05T02:44:59.436Z,0.00
2022-10-05T02:45:59.463Z,0.00
2022-10-05T02:46:59.414Z,0.00
2022-10-05T02:47:59.449Z,0.00
2022-10-05T02:48:59.403Z,0.00
2022-10-05T02:49:59.384Z,0.00
2022-10-05T02:50:59.364Z,0.00
2022-10-05T02:51:59.357Z,0.00
2022-10-05T02:52:59.393Z,0.00
2022-10-05T02:53:59.339Z,0.00
2022-10-05T02:54:59.342Z,0.00
2022-10-05T02:55:59.327Z,0.00
2022-10-05T02:56:59.302Z,0.00
2022-10-05T02:57:59.334Z,0.00
2022-10-05T02:58:59.279Z,0.00
2022-10-05T02:59:59.284Z,0.00
2022-10-05T03:00:59.289Z,0.00
2022-10-05T03:01:59.296Z,0.00
2022-10-05T03:02:59.268Z,0.00
2022-10-05T03:03:59.210Z,0.00
2022-10-05T03:04:59.199Z,0.00
2022-10-05T03:05:59.197Z,0.00
2022-10-05T03:06:59.201Z,0.00
2022-10-05T03:07:59.211Z,0.00
2022-10-05T03:08:59.184Z,0.00
2022-10-05T03:10:01.234Z,0.00
2022-10-05T03:10:59.190Z,0.00
2022-10-05T03:11:59.128Z,0.00
2022-10-05T03:12:59.169Z,0.00
2022-10-05T03:13:59.115Z,0.00
2022-10-05T03:14:59.101Z,0.00
2022-10-05T03:15:59.171Z,0.00
2022-10-05T03:16:59.082Z,0.00
2022-10-05T03:17:59.123Z,0.00
2022-10-05T03:18:59.064Z,0.00
2022-10-05T03:19:59.065Z,0.00
2022-10-05T03:20:59.033Z,0.00
2022-10-05T03:21:59.019Z,0.00
2022-10-05T03:22:59.051Z,0.00
2022-10-05T03:23:58.992Z,0.00
2022-10-05T03:24:59.004Z,0.00
2022-10-05T03:25:58.973Z,0.00
2022-10-05T03:26:58.983Z,0.00
2022-10-05T03:27:59.040Z,0.00
2022-10-05T03:28:58.945Z,0.00
2022-10-05T03:29:58.962Z,0.00
2022-10-05T03:30:58.937Z,0.00
2022-10-05T03:31:58.929Z,0.00
2022-10-05T03:32:58.891Z,0.00
2022-10-05T03:33:58.917Z,0.00
2022-10-05T03:34:58.863Z,0.00
2022-10-05T03:35:58.862Z,0.00
2022-10-05T03:36:58.854Z,0.00
2022-10-05T03:37:58.845Z,0.00
2022-10-05T03:38:58.866Z,0.00
2022-10-05T03:39:58.815Z,0.00
2022-10-05T03:40:58.796Z,0.00
2022-10-05T03:41:58.797Z,0.00
2022-10-05T03:42:58.778Z,0.00
2022-10-05T03:43:58.818Z,0.00
2022-10-05T03:44:58.751Z,0.00
2022-10-05T03:45:58.811Z,0.00
2022-10-05T03:46:58.740Z,0.00
2022-10-05T03:48:01.435Z,0.00
2022-10-05T03:48:58.747Z,0.00
2022-10-05T03:49:58.698Z,0.00
2022-10-05T03:50:58.692Z,0.00
2022-10-05T03:51:58.679Z,0.00
2022-10-05T03:52:58.672Z,0.00
2022-10-05T03:53:58.706Z,0.00
2022-10-05T03:54:58.642Z,0.00
2022-10-05T03:55:58.669Z,0.00
2022-10-05T03:56:58.620Z,0.00
2022-10-05T03:57:58.622Z,0.00
2022-10-05T03:58:58.648Z,0.00
2022-10-05T03:59:58.606Z,0.00
2022-10-05T04:00:58.571Z,0.00
2022-10-05T04:01:58.651Z,0.00
2022-10-05T04:02:58.563Z,0.00
2022-10-05T04:03:58.581Z,0.00
2022-10-05T04:04:58.515Z,0.00
2022-10-05T04:05:58.536Z,0.00
2022-10-05T04:06:58.512Z,0.00
2022-10-05T04:07:58.502Z,0.00
2022-10-05T04:08:58.522Z,0.00
2022-10-05T04:09:58.476Z,0.00
2022-10-05T04:10:58.456Z,0.00
2022-10-05T04:11:58.455Z,0.00
2022-10-05T04:12:58.436Z,0.00
2022-10-05T04:13:58.476Z,0.00
2022-10-05T04:14:58.397Z,0.00
2022-10-05T04:15:58.477Z,0.00
2022-10-05T04:16:58.436Z,0.00
2022-10-05T04:17:58.380Z,0.00
2022-10-05T04:18:58.418Z,0.00
2022-10-05T04:19:58.373Z,0.00
2022-10-05T04:20:58.362Z,0.00
2022-10-05T04:21:58.343Z,0.00
2022-10-05T04:22:58.336Z,0.00
2022-10-05T04:23:58.381Z,0.00
2022-10-05T04:24:58.286Z,0.00
2022-10-05T04:25:58.303Z,0.00
2022-10-05T04:26:58.275Z,0.00
2022-10-05T04:27:58.294Z,0.00
2022-10-05T04:28:58.308Z,0.00
2022-10-05T04:29:58.260Z,0.00
2022-10-05T04:30:58.263Z,0.00
2022-10-05T04:31:58.208Z,0.00
2022-10-05T04:32:58.218Z,0.00
2022-10-05T04:33:58.242Z,0.00
2022-10-05T04:34:58.187Z,0.00
2022-10-05T04:35:58.184Z,0.00
2022-10-05T04:36:58.174Z,0.00
2022-10-05T04:37:58.170Z,4.00
2022-10-05T04:38:58.185Z,4.00
2022-10-05T04:39:58.147Z,4.00
2022-10-05T04:40:58.154Z,0.00
2022-10-05T04:41:58.124Z,4.00
2022-10-05T04:42:58.155Z,8.00
2022-10-05T04:43:58.096Z,4.00
2022-10-05T04:44:59.392Z,8.00
2022-10-05T04:45:58.060Z,8.00
2022-10-05T04:46:58.127Z,12.00
2022-10-05T04:47:58.101Z,16.00
2022-10-05T04:48:58.036Z,16.00
2022-10-05T04:49:58.029Z,16.00
2022-10-05T04:50:58.020Z,24.00
2022-10-05T04:51:58.005Z,28.00
2022-10-05T04:52:58.024Z,32.00
2022-10-05T04:53:57.968Z,40.00
2022-10-05T04:54:57.974Z,48.00
2022-10-05T04:55:57.977Z,56.00
2022-10-05T04:56:57.933Z,64.00
2022-10-05T04:57:57.987Z,76.00
2022-10-05T04:58:57.918Z,88.00
2022-10-05T04:59:57.915Z,96.00
2022-10-05T05:00:57.966Z,112.00
2022-10-05T05:01:57.880Z,128.00
2022-10-05T05:02:57.910Z,144.00
2022-10-05T05:03:57.855Z,164.00
2022-10-05T05:04:57.831Z,180.00
2022-10-05T05:06:16.462Z,204.00
2022-10-05T05:06:58.817Z,224.00
2022-10-05T05:07:57.851Z,244.00
2022-10-05T05:08:57.801Z,268.00
2022-10-05T05:09:57.799Z,288.00
2022-10-05T05:10:57.788Z,312.00
2022-10-05T05:11:57.795Z,344.00
2022-10-05T05:12:57.827Z,372.00
2022-10-05T05:13:57.746Z,412.00
2022-10-05T05:14:57.736Z,448.00
2022-10-05T05:15:57.906Z,492.00
2022-10-05T05:16:57.727Z,540.00
2022-10-05T05:17:57.756Z,596.00
2022-10-05T05:18:57.698Z,656.00
2022-10-05T05:19:57.717Z,708.00
2022-10-05T05:20:57.666Z,756.00
2022-10-05T05:21:57.662Z,808.00
2022-10-05T05:22:57.697Z,848.00
2022-10-05T05:23:57.646Z,884.00
2022-10-05T05:24:57.619Z,924.00
2022-10-05T05:25:57.641Z,956.00
2022-10-05T05:26:57.643Z,992.00
2022-10-05T05:27:57.709Z,1016.00
2022-10-05T05:28:57.567Z,1040.00
2022-10-05T05:29:57.560Z,1048.00
2022-10-05T05:30:57.593Z,1052.00
2022-10-05T05:31:57.543Z,1056.00
2022-10-05T05:32:57.672Z,1060.00
2022-10-05T05:33:57.507Z,1068.00
2022-10-05T05:34:57.496Z,1080.00
2022-10-05T05:35:57.500Z,1092.00
2022-10-05T05:36:57.473Z,1104.00
2022-10-05T05:37:57.516Z,1124.00
2022-10-05T05:38:57.462Z,1144.00
2022-10-05T05:39:57.458Z,1172.00
2022-10-05T05:40:57.446Z,1204.00
2022-10-05T05:41:57.454Z,1244.00
2022-10-05T05:42:57.468Z,1288.00
2022-10-05T05:43:57.402Z,1336.00
2022-10-05T05:44:57.391Z,1384.00
2022-10-05T05:45:57.386Z,1440.00
2022-10-05T05:47:05.410Z,1508.00
2022-10-05T05:47:58.412Z,1576.00
2022-10-05T05:48:57.359Z,1644.00
2022-10-05T05:49:57.332Z,1716.00
2022-10-05T05:50:57.354Z,1780.00
2022-10-05T05:51:57.320Z,1852.00
2022-10-05T05:52:57.389Z,1940.00
2022-10-05T05:53:57.309Z,2032.00
2022-10-05T05:54:57.274Z,2132.00
2022-10-05T05:55:57.287Z,2240.00
2022-10-05T05:56:57.257Z,2336.00
2022-10-05T05:57:57.297Z,2432.00
2022-10-05T05:58:57.237Z,2524.00
2022-10-05T05:59:57.221Z,2604.00
2022-10-05T06:00:57.226Z,2700.00
2022-10-05T06:01:57.283Z,2808.00
2022-10-05T06:02:57.345Z,2904.00
2022-10-05T06:03:57.178Z,3012.00
2022-10-05T06:04:57.178Z,3144.00
2022-10-05T06:05:57.161Z,3284.00
2022-10-05T06:06:57.155Z,3432.00
2022-10-05T06:07:57.197Z,3596.00
2022-10-05T06:08:57.126Z,3780.00
2022-10-05T06:09:57.117Z,3968.00
2022-10-05T06:10:57.091Z,4160.00
2022-10-05T06:11:57.101Z,4348.00
2022-10-05T06:13:01.487Z,4568.00
2022-10-05T06:13:57.078Z,4812.00
2022-10-05T06:14:57.058Z,5084.00
2022-10-05T06:15:57.080Z,5332.00
2022-10-05T06:16:57.126Z,5596.00
2022-10-05T06:17:57.071Z,5864.00
2022-10-05T06:18:57.021Z,6104.00
2022-10-05T06:20:01.093Z,6340.00
2022-10-05T06:20:57.993Z,6556.00
2022-10-05T06:21:56.986Z,6744.00
2022-10-05T06:22:57.031Z,6880.00
2022-10-05T06:23:56.976Z,7048.00
2022-10-05T06:24:56.937Z,7224.00
2022-10-05T06:25:56.941Z,7408.00
2022-10-05T06:26:56.927Z,7544.00
2022-10-05T06:27:57.037Z,7664.00
2022-10-05T06:28:56.900Z,7836.00
2022-10-05T06:29:56.904Z,8036.00
2022-10-05T06:30:56.890Z,8164.00
2022-10-05T06:31:59.023Z,8148.00
2022-10-05T06:32:56.889Z,8084.00
2022-10-05T06:33:56.828Z,8064.00
2022-10-05T06:34:56.843Z,8080.00
2022-10-05T06:35:56.840Z,8076.00
2022-10-05T06:36:56.820Z,8076.00
2022-10-05T06:37:56.837Z,8132.00
2022-10-05T06:38:56.784Z,8272.00
2022-10-05T06:40:00.854Z,8416.00
2022-10-05T06:40:56.770Z,8596.00
2022-10-05T06:41:56.760Z,8660.00
2022-10-05T06:42:56.789Z,8860.00
2022-10-05T06:43:56.744Z,9104.00
2022-10-05T06:44:56.729Z,9372.00
2022-10-05T06:45:56.772Z,9616.00
2022-10-05T06:46:56.690Z,9972.00
2022-10-05T06:47:58.629Z,10236.00
2022-10-05T06:48:56.688Z,10380.00
2022-10-05T06:49:56.659Z,10332.00
2022-10-05T06:50:56.663Z,10240.00
2022-10-05T06:51:56.643Z,10184.00
2022-10-05T06:52:56.676Z,10348.00
2022-10-05T06:53:56.640Z,10176.00
2022-10-05T06:54:56.611Z,9812.00
2022-10-05T06:55:56.596Z,9628.00
2022-10-05T06:56:56.595Z,9388.00
2022-10-05T06:57:56.645Z,8744.00
2022-10-05T06:58:56.562Z,8396.00
2022-10-05T06:59:56.568Z,8156.00
2022-10-05T07:00:56.586Z,7996.00
2022-10-05T07:01:56.579Z,7892.00
2022-10-05T07:02:56.547Z,7964.00
2022-10-05T07:03:56.500Z,8164.00
2022-10-05T07:04:56.476Z,8844.00
2022-10-05T07:05:56.500Z,8520.00
2022-10-05T07:06:56.476Z,9092.00
2022-10-05T07:07:56.536Z,9980.00
2022-10-05T07:08:56.448Z,11564.00
2022-10-05T07:09:56.450Z,12356.00
2022-10-05T07:10:56.435Z,11224.00
2022-10-05T07:12:00.828Z,11784.00
2022-10-05T07:12:57.466Z,13956.00
2022-10-05T07:13:56.396Z,15720.00
2022-10-05T07:14:56.379Z,19648.00
2022-10-05T07:15:56.592Z,29088.00
2022-10-05T07:16:56.362Z,18624.00
2022-10-05T07:17:56.349Z,23264.00
2022-10-05T07:18:56.380Z,23232.00
2022-10-05T07:19:56.334Z,28832.00
2022-10-05T07:20:56.315Z,27936.00
2022-10-05T07:21:56.358Z,20096.00
2022-10-05T07:22:56.291Z,28992.00
2022-10-05T07:23:56.346Z,25856.00
2022-10-05T07:24:56.259Z,23200.00
2022-10-05T07:25:56.267Z,25408.00
2022-10-05T07:26:56.237Z,27616.00
2022-10-05T07:27:56.260Z,26944.00
2022-10-05T07:28:56.282Z,26464.00
2022-10-05T07:29:56.223Z,27040.00
2022-10-05T07:30:56.259Z,25600.00
2022-10-05T07:31:56.177Z,25728.00
2022-10-05T07:32:56.180Z,26944.00
2022-10-05T07:33:56.205Z,28160.00
2022-10-05T07:34:56.159Z,24992.00
2022-10-05T07:35:56.144Z,22400.00
2022-10-05T07:36:56.408Z,22336.00
2022-10-05T07:37:56.113Z,22144.00
2022-10-05T07:38:56.151Z,25056.00
2022-10-05T07:40:00.631Z,21920.00
2022-10-05T07:40:57.084Z,26624.00
2022-10-05T07:41:56.079Z,25632.00
2022-10-05T07:42:56.087Z,26592.00
2022-10-05T07:44:02.642Z,26752.00
2022-10-05T07:44:57.059Z,27520.00
2022-10-05T07:45:56.130Z,27328.00
2022-10-05T07:46:56.034Z,27392.00
2022-10-05T07:47:56.015Z,29120.00
2022-10-05T07:48:56.031Z,28544.00
2022-10-05T07:49:55.986Z,30976.00
2022-10-05T07:50:55.971Z,31744.00
2022-10-05T07:51:55.952Z,31616.00
2022-10-05T07:52:55.963Z,30528.00
2022-10-05T07:53:55.989Z,27872.00
2022-10-05T07:54:55.926Z,28128.00
2022-10-05T07:55:55.925Z,27872.00
2022-10-05T07:56:55.914Z,25600.00
2022-10-05T07:57:55.935Z,26240.00
2022-10-05T07:58:55.961Z,26976.00
2022-10-05T07:59:55.841Z,26304.00
2022-10-05T08:00:55.860Z,22272.00
2022-10-05T08:01:55.845Z,25856.00
2022-10-05T08:02:55.949Z,27040.00
2022-10-05T08:03:55.800Z,28672.00
2022-10-05T08:04:55.823Z,29344.00
2022-10-05T08:05:55.793Z,29440.00
2022-10-05T08:06:55.802Z,29408.00
2022-10-05T08:07:55.852Z,31104.00
2022-10-05T08:08:55.771Z,34240.00
2022-10-05T08:09:55.761Z,35264.00
2022-10-05T08:10:55.751Z,35488.00
2022-10-05T08:11:55.743Z,35488.00
2022-10-05T08:12:55.736Z,31264.00
2022-10-05T08:13:55.753Z,26496.00
2022-10-05T08:14:55.711Z,24032.00
2022-10-05T08:15:55.711Z,25920.00
2022-10-05T08:16:55.696Z,16848.00
2022-10-05T08:17:55.657Z,20448.00
2022-10-05T08:18:55.716Z,30752.00
2022-10-05T08:19:55.636Z,32864.00
2022-10-05T08:20:55.651Z,32896.00
2022-10-05T08:21:55.619Z,32064.00
2022-10-05T08:22:55.694Z,32608.00
2022-10-05T08:23:55.653Z,32800.00
2022-10-05T08:24:55.588Z,32608.00
2022-10-05T08:25:55.592Z,32768.00
2022-10-05T08:26:55.565Z,32864.00
2022-10-05T08:27:55.632Z,32288.00
2022-10-05T08:28:55.635Z,32288.00
2022-10-05T08:29:55.524Z,34368.00
2022-10-05T08:30:55.563Z,34368.00
2022-10-05T08:31:55.518Z,32096.00
2022-10-05T08:32:55.537Z,32288.00
2022-10-05T08:33:55.540Z,34368.00
2022-10-05T08:34:55.476Z,36448.00
2022-10-05T08:35:55.460Z,36320.00
2022-10-05T08:36:55.533Z,37376.00
2022-10-05T08:37:55.442Z,39136.00
2022-10-05T08:38:55.493Z,39520.00
2022-10-05T08:39:55.418Z,38208.00
2022-10-05T08:40:55.417Z,40288.00
2022-10-05T08:41:55.393Z,39776.00
2022-10-05T08:42:55.382Z,40160.00
2022-10-05T08:43:55.407Z,40064.00
2022-10-05T08:44:55.362Z,40736.00
2022-10-05T08:45:55.388Z,42304.00
2022-10-05T08:46:55.363Z,43200.00
2022-10-05T08:47:55.309Z,43072.00
2022-10-05T08:48:55.356Z,38368.00
2022-10-05T08:49:55.304Z,35680.00
2022-10-05T08:50:55.323Z,37696.00
2022-10-05T08:51:55.282Z,44800.00
2022-10-05T08:52:55.284Z,42368.00
2022-10-05T08:53:55.331Z,40576.00
2022-10-05T08:54:55.276Z,39584.00
2022-10-05T08:55:55.240Z,32032.00
2022-10-05T08:56:55.232Z,29248.00
2022-10-05T08:57:55.198Z,31264.00
2022-10-05T08:58:55.239Z,26304.00
2022-10-05T08:59:55.181Z,26240.00
2022-10-05T09:00:55.175Z,19808.00
2022-10-05T09:01:55.270Z,22112.00
2022-10-05T09:02:55.193Z,19712.00
2022-10-05T09:03:55.203Z,19072.00
2022-10-05T09:04:55.152Z,17728.00
2022-10-05T09:05:55.130Z,22944.00
2022-10-05T09:06:55.149Z,22656.00
2022-10-05T09:07:55.112Z,24192.00
2022-10-05T09:08:55.116Z,25472.00
2022-10-05T09:09:59.489Z,22528.00
2022-10-05T09:10:56.081Z,22336.00
2022-10-05T09:11:55.054Z,18816.00
2022-10-05T09:12:55.051Z,20832.00
2022-10-05T09:13:55.073Z,27104.00
2022-10-05T09:15:20.490Z,31872.00
2022-10-05T09:15:56.052Z,29216.00
2022-10-05T09:16:55.004Z,26944.00
2022-10-05T09:17:55.014Z,27456.00
2022-10-05T09:18:55.053Z,24544.00
2022-10-05T09:19:54.978Z,25344.00
2022-10-05T09:20:54.967Z,28800.00
2022-10-05T09:21:54.937Z,28608.00
2022-10-05T09:22:54.956Z,30144.00
2022-10-05T09:23:54.977Z,28704.00
2022-10-05T09:24:54.892Z,26720.00
2022-10-05T09:25:54.899Z,29376.00
2022-10-05T09:26:54.885Z,41536.00
2022-10-05T09:27:54.908Z,43328.00
2022-10-05T09:28:54.903Z,40224.00
2022-10-05T09:29:54.866Z,41120.00
2022-10-05T09:30:54.889Z,35488.00
2022-10-05T09:31:54.857Z,36064.00
2022-10-05T09:32:54.827Z,42944.00
2022-10-05T09:33:54.852Z,40256.00
2022-10-05T09:34:54.823Z,42656.00
2022-10-05T09:35:54.791Z,37504.00
2022-10-05T09:36:54.788Z,32032.00
2022-10-05T09:37:54.760Z,35072.00
2022-10-05T09:38:54.831Z,40256.00
2022-10-05T09:39:59.068Z,33536.00
2022-10-05T09:40:55.734Z,29408.00
2022-10-05T09:41:54.713Z,24832.00
2022-10-05T09:42:54.714Z,22080.00
2022-10-05T09:43:54.741Z,19840.00
2022-10-05T09:44:54.685Z,19552.00
2022-10-05T09:45:54.712Z,22560.00
2022-10-05T09:46:54.671Z,23168.00
2022-10-05T09:47:54.693Z,24928.00
2022-10-05T09:48:54.679Z,26368.00
2022-10-05T09:49:54.618Z,27488.00
2022-10-05T09:50:54.622Z,27840.00
2022-10-05T09:51:54.618Z,36832.00
2022-10-05T09:52:54.641Z,45312.00
2022-10-05T09:53:54.577Z,55904.00
2022-10-05T09:54:54.595Z,54176.00
2022-10-05T09:55:54.554Z,49248.00
2022-10-05T09:56:54.565Z,49792.00
2022-10-05T09:57:54.563Z,45280.00
2022-10-05T09:58:54.536Z,43904.00
2022-10-05T09:59:54.568Z,35424.00
2022-10-05T10:01:03.718Z,45376.00
2022-10-05T10:01:55.582Z,51584.00
2022-10-05T10:02:54.609Z,57632.00
2022-10-05T10:03:54.464Z,37472.00
2022-10-05T10:04:54.465Z,65696.00
2022-10-05T10:05:54.445Z,66112.00
2022-10-05T10:06:54.445Z,71008.00
2022-10-05T10:07:54.462Z,70368.00
2022-10-05T10:08:54.424Z,61472.00
2022-10-05T10:09:54.396Z,62400.00
2022-10-05T10:10:54.410Z,63008.00
2022-10-05T10:11:54.394Z,72416.00
2022-10-05T10:12:54.432Z,69984.00
2022-10-05T10:13:54.364Z,65056.00
2022-10-05T10:14:54.348Z,43552.00
2022-10-05T10:15:54.369Z,34528.00
2022-10-05T10:16:54.347Z,48032.00
2022-10-05T10:17:54.356Z,46464.00
2022-10-05T10:18:54.302Z,55712.00
2022-10-05T10:19:54.300Z,56672.00
2022-10-05T10:20:54.290Z,48512.00
2022-10-05T10:21:54.285Z,54304.00
2022-10-05T10:22:54.261Z,60448.00
2022-10-05T10:23:54.284Z,59168.00
2022-10-05T10:24:54.236Z,63296.00
2022-10-05T10:25:54.220Z,57984.00
2022-10-05T10:26:54.219Z,74240.00
2022-10-05T10:27:54.303Z,84768.00
2022-10-05T10:28:54.257Z,85600.00
2022-10-05T10:29:54.180Z,77120.00
2022-10-05T10:30:54.205Z,100160.00
2022-10-05T10:31:54.159Z,99648.00
2022-10-05T10:32:54.137Z,85408.00
2022-10-05T10:33:54.187Z,95104.00
2022-10-05T10:34:54.167Z,97568.00
2022-10-05T10:35:54.121Z,92448.00
2022-10-05T10:36:54.123Z,85376.00
2022-10-05T10:37:54.131Z,86624.00
2022-10-05T10:38:54.092Z,87936.00
2022-10-05T10:39:54.085Z,91168.00
2022-10-05T10:40:54.069Z,95040.00
2022-10-05T10:41:54.064Z,85600.00
2022-10-05T10:42:54.058Z,90880.00
2022-10-05T10:43:54.084Z,89984.00
2022-10-05T10:44:54.025Z,90240.00
2022-10-05T10:45:54.003Z,83136.00
2022-10-05T10:46:54.126Z,88960.00
2022-10-05T10:47:53.992Z,88576.00
2022-10-05T10:48:54.023Z,87840.00
2022-10-05T10:49:53.961Z,94304.00
2022-10-05T10:50:53.968Z,101216.00
2022-10-05T10:51:53.960Z,92160.00
2022-10-05T10:52:53.944Z,108480.00
2022-10-05T10:53:53.977Z,95648.00
2022-10-05T10:54:53.906Z,109120.00
2022-10-05T10:55:53.895Z,124800.00
2022-10-05T10:56:53.887Z,131104.00
2022-10-05T10:57:53.898Z,100704.00
2022-10-05T10:58:53.922Z,102912.00
2022-10-05T10:59:53.838Z,55744.00
2022-10-05T11:00:53.865Z,53216.00
2022-10-05T11:01:53.885Z,42720.00
2022-10-05T11:02:53.922Z,42624.00
2022-10-05T11:03:53.877Z,40448.00
2022-10-05T11:04:53.803Z,35168.00
2022-10-05T11:05:53.794Z,33792.00
2022-10-05T11:06:53.764Z,36032.00
2022-10-05T11:07:53.769Z,44864.00
2022-10-05T11:08:53.824Z,36800.00
2022-10-05T11:09:53.742Z,39744.00
2022-10-05T11:10:53.740Z,38560.00
2022-10-05T11:11:53.727Z,38688.00
2022-10-05T11:12:53.702Z,34976.00
2022-10-05T11:13:53.769Z,34400.00
2022-10-05T11:14:53.702Z,34784.00
2022-10-05T11:15:53.751Z,35456.00
2022-10-05T11:16:53.922Z,36512.00
2022-10-05T11:17:53.656Z,38112.00
2022-10-05T11:18:53.713Z,38912.00
2022-10-05T11:20:03.555Z,38816.00
2022-10-05T11:20:54.626Z,40992.00
2022-10-05T11:21:53.648Z,42272.00
2022-10-05T11:22:53.603Z,39072.00
2022-10-05T11:23:53.636Z,38400.00
2022-10-05T11:24:53.584Z,37952.00
2022-10-05T11:25:53.568Z,33248.00
2022-10-05T11:26:53.557Z,31200.00
2022-10-05T11:27:53.622Z,30208.00
2022-10-05T11:28:53.592Z,29312.00
2022-10-05T11:29:53.541Z,28640.00
2022-10-05T11:30:53.589Z,28352.00
2022-10-05T11:31:53.879Z,28480.00
2022-10-05T11:32:53.511Z,28928.00
2022-10-05T11:33:53.541Z,29120.00
2022-10-05T11:34:53.493Z,29472.00
2022-10-05T11:35:53.461Z,29632.00
2022-10-05T11:36:53.478Z,29696.00
2022-10-05T11:37:53.441Z,29856.00
2022-10-05T11:38:53.476Z,30464.00
2022-10-05T11:39:53.443Z,31008.00
2022-10-05T11:40:53.432Z,29856.00
2022-10-05T11:41:53.415Z,29184.00
2022-10-05T11:42:53.388Z,29024.00
2022-10-05T11:43:53.421Z,28896.00
2022-10-05T11:44:53.375Z,28800.00
2022-10-05T11:45:53.361Z,28608.00
2022-10-05T11:46:53.411Z,28448.00
2022-10-05T11:47:53.343Z,28416.00
2022-10-05T11:48:53.390Z,28480.00
2022-10-05T11:49:53.328Z,28640.00
2022-10-05T11:50:53.303Z,28864.00
2022-10-05T11:51:53.275Z,29024.00
2022-10-05T11:52:53.304Z,28832.00
2022-10-05T11:53:53.302Z,29120.00
2022-10-05T11:55:09.810Z,28768.00
2022-10-05T11:55:54.237Z,28480.00
2022-10-05T11:56:54.732Z,28320.00
2022-10-05T11:57:53.219Z,28224.00
2022-10-05T11:58:53.267Z,28288.00
2022-10-05T11:59:53.214Z,28352.00
2022-10-05T12:00:53.184Z,28320.00
2022-10-05T12:01:53.199Z,28384.00
2022-10-05T12:02:53.252Z,28512.00
2022-10-05T12:03:53.297Z,28288.00
2022-10-05T12:04:53.149Z,28320.00
2022-10-05T12:05:53.156Z,28160.00
2022-10-05T12:06:53.113Z,28768.00
2022-10-05T12:07:53.155Z,28736.00
2022-10-05T12:08:53.146Z,28384.00
2022-10-05T12:09:53.107Z,27168.00
2022-10-05T12:10:53.075Z,34816.00
2022-10-05T12:11:57.017Z,32160.00
2022-10-05T12:12:54.070Z,30176.00
2022-10-05T12:13:53.085Z,30336.00
2022-10-05T12:14:53.031Z,31552.00
2022-10-05T12:15:53.076Z,33728.00
2022-10-05T12:16:53.026Z,43008.00
2022-10-05T12:17:52.999Z,35488.00
2022-10-05T12:18:53.024Z,31200.00
2022-10-05T12:19:52.985Z,37376.00
2022-10-05T12:20:52.982Z,36480.00
2022-10-05T12:21:52.959Z,25760.00
2022-10-05T12:22:52.932Z,26304.00